createdAt,value
2022-10-07T00:01:12.996Z,6.38
2022-10-07T00:03:41.952Z,7.10
2022-10-07T00:06:14.278Z,7.18
2022-10-07T00:08:44.478Z,5.90
2022-10-07T00:11:14.997Z,6.03
2022-10-07T00:13:44.956Z,4.93
2022-10-07T00:16:15.530Z,6.57
2022-10-07T00:18:44.538Z,5.63
2022-10-07T00:21:16.280Z,5.97
2022-10-07T00:23:45.843Z,5.10
2022-10-07T00:26:15.923Z,5.82
2022-10-07T00:28:44.874Z,5.00
2022-10-07T00:31:16.295Z,6.13
2022-10-07T00:33:45.155Z,5.63
2022-10-07T00:36:16.865Z,5.55
2022-10-07T00:38:45.550Z,6.13
2022-10-07T00:41:19.397Z,7.07
2022-10-07T00:43:47.976Z,5.95
2022-10-07T00:46:25.230Z,8.43
2022-10-07T00:48:54.189Z,5.25
2022-10-07T00:51:24.112Z,8.20
2022-10-07T00:53:55.176Z,6.00
2022-10-07T00:56:24.719Z,6.28
2022-10-07T00:58:53.277Z,7.30
2022-10-07T01:01:22.221Z,7.05
2022-10-07T01:03:50.864Z,5.95
2022-10-07T01:06:19.121Z,7.18
2022-10-07T01:08:50.057Z,7.53
2022-10-07T01:11:29.554Z,5.85
2022-10-07T01:14:07.911Z,7.38
2022-10-07T01:16:45.172Z,6.90
2022-10-07T01:19:36.444Z,6.65
2022-10-07T01:22:26.021Z,5.65
2022-10-07T01:25:06.711Z,5.15
2022-10-07T01:27:38.438Z,6.97
2022-10-07T01:30:09.149Z,5.03
2022-10-07T01:32:41.520Z,5.23
2022-10-07T01:35:14.392Z,4.88
2022-10-07T01:37:48.592Z,5.32
2022-10-07T01:40:20.865Z,4.70
2022-10-07T01:42:52.465Z,5.32
2022-10-07T01:47:50.726Z,4.63
2022-10-07T01:50:21.841Z,5.22
2022-10-07T01:53:03.055Z,5.75
2022-10-07T01:55:45.361Z,5.72
2022-10-07T01:58:31.261Z,6.15
2022-10-07T02:01:06.676Z,5.10
2022-10-07T02:03:47.924Z,6.88
2022-10-07T02:06:24.702Z,5.13
2022-10-07T02:08:55.798Z,6.07
2022-10-07T02:11:27.490Z,4.78
2022-10-07T02:16:34.900Z,4.65
2022-10-07T02:19:07.843Z,4.93
2022-10-07T02:21:37.674Z,4.63
2022-10-07T02:24:08.462Z,4.60
2022-10-07T02:26:38.437Z,4.95
2022-10-07T02:29:11.108Z,5.13
2022-10-07T02:31:40.357Z,6.72
2022-10-07T02:34:11.088Z,6.40
2022-10-07T02:36:45.143Z,4.30
2022-10-07T02:39:14.526Z,4.57
2022-10-07T02:41:51.443Z,4.93
2022-10-07T02:44:26.018Z,4.38
2022-10-07T02:47:00.396Z,5.43
2022-10-07T02:49:31.509Z,4.80
2022-10-07T02:52:03.254Z,6.55
2022-10-07T02:54:36.974Z,4.40
2022-10-07T02:57:07.196Z,4.50
2022-10-07T02:59:38.877Z,4.43
2022-10-07T03:02:12.692Z,4.18
2022-10-07T03:04:40.991Z,5.13
2022-10-07T03:07:09.295Z,5.18
2022-10-07T03:09:37.769Z,5.25
2022-10-07T03:12:06.158Z,5.53
2022-10-07T03:14:35.891Z,6.47
2022-10-07T03:17:05.509Z,5.55
2022-10-07T03:19:33.731Z,4.82
2022-10-07T03:22:02.558Z,4.43
2022-10-07T03:24:31.325Z,4.63
2022-10-07T03:26:59.740Z,5.68
2022-10-07T03:29:28.202Z,4.53
2022-10-07T03:31:56.494Z,4.55
2022-10-07T03:34:27.375Z,4.65
2022-10-07T03:36:56.192Z,6.05
2022-10-07T03:39:24.615Z,5.22
2022-10-07T03:41:52.874Z,5.68
2022-10-07T03:44:22.623Z,5.22
2022-10-07T03:46:51.233Z,5.88
2022-10-07T03:49:20.607Z,5.03
2022-10-07T03:51:50.224Z,5.53
2022-10-07T03:54:18.854Z,5.00
2022-10-07T03:56:47.141Z,5.28
2022-10-07T03:59:15.454Z,6.13
2022-10-07T04:01:43.735Z,6.72
2022-10-07T04:04:11.976Z,4.07
2022-10-07T04:06:40.264Z,5.22
2022-10-07T04:09:10.142Z,4.07
2022-10-07T04:11:40.704Z,5.22
2022-10-07T04:14:09.211Z,4.97
2022-10-07T04:16:38.835Z,4.97
2022-10-07T04:19:07.346Z,5.90
2022-10-07T04:21:35.552Z,5.05
2022-10-07T04:24:03.760Z,5.55
2022-10-07T04:26:33.507Z,4.20
2022-10-07T04:29:01.889Z,4.93
2022-10-07T04:31:30.328Z,4.80
2022-10-07T04:33:58.809Z,4.93
2022-10-07T04:36:27.406Z,4.35
2022-10-07T04:38:55.609Z,3.50
2022-10-07T04:41:23.872Z,5.95
2022-10-07T04:43:57.626Z,4.82
2022-10-07T04:46:26.414Z,5.00
2022-10-07T04:48:54.659Z,5.13
2022-10-07T04:51:23.197Z,5.45
2022-10-07T04:53:57.032Z,4.97
2022-10-07T04:56:25.477Z,5.28
2022-10-07T04:58:56.004Z,5.22
2022-10-07T05:01:24.771Z,4.75
2022-10-07T05:03:54.334Z,5.32
2022-10-07T05:06:22.690Z,7.70
2022-10-07T05:08:53.061Z,5.53
2022-10-07T05:11:21.297Z,5.68
2022-10-07T05:13:49.491Z,5.65
2022-10-07T05:16:19.480Z,6.60
2022-10-07T05:18:47.827Z,6.30
2022-10-07T05:21:15.980Z,4.88
2022-10-07T05:23:44.172Z,4.68
2022-10-07T05:26:14.283Z,5.88
2022-10-07T05:28:44.214Z,5.30
2022-10-07T05:31:14.208Z,5.05
2022-10-07T05:33:44.335Z,6.20
2022-10-07T05:36:12.704Z,5.13
2022-10-07T05:38:40.951Z,5.22
2022-10-07T05:41:12.128Z,5.85
2022-10-07T05:43:43.282Z,6.22
2022-10-07T05:46:13.663Z,5.60
2022-10-07T05:48:46.404Z,6.00
2022-10-07T05:51:15.199Z,6.05
2022-10-07T05:53:44.988Z,6.30
2022-10-07T05:56:17.034Z,7.05
2022-10-07T05:58:46.172Z,5.50
2022-10-07T06:01:17.178Z,5.65
2022-10-07T06:03:51.149Z,5.13
2022-10-07T06:06:19.967Z,5.72
2022-10-07T06:08:48.381Z,5.30
2022-10-07T06:11:36.033Z,5.03
2022-10-07T06:14:04.874Z,5.90
2022-10-07T06:16:33.641Z,7.35
2022-10-07T06:19:03.800Z,5.78
2022-10-07T06:21:32.050Z,6.40
2022-10-07T06:24:00.302Z,5.47
2022-10-07T06:26:28.682Z,6.15
2022-10-07T06:28:56.989Z,6.38
2022-10-07T06:31:26.034Z,6.43
2022-10-07T06:33:55.404Z,5.75
2022-10-07T06:36:25.790Z,5.22
2022-10-07T06:38:55.569Z,6.00
2022-10-07T06:41:25.610Z,5.38
2022-10-07T06:43:58.573Z,7.97
2022-10-07T06:46:26.973Z,5.68
2022-10-07T06:48:55.296Z,6.13
2022-10-07T06:51:25.261Z,5.45
2022-10-07T06:53:55.090Z,6.80
2022-10-07T06:56:25.067Z,6.55
2022-10-07T06:58:55.768Z,6.45
2022-10-07T07:01:40.811Z,5.47
2022-10-07T07:04:12.666Z,7.18
2022-10-07T07:06:42.982Z,5.43
2022-10-07T07:09:11.184Z,5.32
2022-10-07T07:11:44.725Z,5.63
2022-10-07T07:20:16.672Z,8.15
2022-10-07T07:22:56.730Z,6.93
2022-10-07T07:28:10.218Z,8.65
2022-10-07T07:30:41.606Z,9.77
2022-10-07T07:41:51.914Z,8.07
2022-10-07T07:44:22.874Z,9.13
2022-10-07T07:46:58.944Z,6.93
2022-10-07T07:49:32.201Z,6.40
2022-10-07T07:52:02.903Z,6.15
2022-10-07T07:54:46.678Z,7.53
2022-10-07T07:57:29.730Z,7.90
2022-10-07T08:00:01.285Z,7.45
2022-10-07T08:02:29.617Z,6.78
2022-10-07T08:04:58.112Z,7.78
2022-10-07T08:07:34.299Z,6.35
2022-10-07T08:10:19.792Z,6.88
2022-10-07T08:12:49.592Z,6.18
2022-10-07T08:15:21.569Z,7.10
2022-10-07T08:17:50.876Z,6.30
2022-10-07T08:20:23.057Z,6.22
2022-10-07T08:25:47.029Z,6.78
2022-10-07T08:28:18.082Z,8.27
2022-10-07T08:30:46.449Z,5.53
2022-10-07T08:33:14.798Z,6.28
2022-10-07T08:35:43.427Z,6.60
2022-10-07T08:38:14.505Z,6.30
2022-10-07T08:40:50.075Z,5.90
2022-10-07T08:43:19.656Z,6.07
2022-10-07T08:45:48.780Z,8.50
2022-10-07T08:48:21.793Z,7.93
2022-10-07T08:51:00.833Z,6.90
2022-10-07T08:53:34.095Z,8.13
2022-10-07T08:56:13.897Z,8.98
2022-10-07T08:59:06.927Z,5.70
2022-10-07T09:01:50.297Z,7.80
2022-10-07T09:04:33.664Z,8.52
2022-10-07T09:07:05.185Z,6.75
2022-10-07T09:09:41.377Z,6.72
2022-10-07T09:12:19.173Z,6.85
2022-10-07T09:14:49.326Z,6.15
2022-10-07T09:17:22.513Z,7.72
2022-10-07T09:19:55.734Z,6.93
2022-10-07T09:22:32.248Z,6.45
2022-10-07T09:31:18.750Z,11.00
2022-10-07T09:33:52.302Z,7.85
2022-10-07T09:36:20.596Z,7.45
2022-10-07T09:38:50.609Z,7.90
2022-10-07T09:41:21.960Z,7.88
2022-10-07T09:46:53.921Z,5.88
2022-10-07T09:49:36.289Z,6.90
2022-10-07T09:52:08.676Z,6.68
2022-10-07T09:54:40.588Z,6.85
2022-10-07T09:57:35.168Z,6.55
2022-10-07T10:00:24.629Z,5.60
2022-10-07T10:02:57.676Z,5.20
2022-10-07T10:05:32.947Z,6.35
2022-10-07T10:11:03.842Z,7.10
2022-10-07T10:13:35.425Z,7.35
2022-10-07T10:16:41.245Z,7.57
2022-10-07T10:19:39.011Z,6.40
2022-10-07T10:22:16.505Z,5.68
2022-10-07T10:25:02.755Z,5.90
2022-10-07T10:27:37.474Z,6.63
2022-10-07T10:30:09.838Z,6.57
2022-10-07T10:33:10.072Z,6.18
2022-10-07T10:35:44.161Z,6.13
2022-10-07T10:38:37.613Z,7.35
2022-10-07T10:41:15.464Z,8.85
2022-10-07T10:46:54.966Z,8.68
2022-10-07T10:49:31.125Z,8.77
2022-10-07T10:52:27.755Z,9.25
2022-10-07T10:55:33.905Z,9.93
2022-10-07T10:58:27.261Z,9.20
2022-10-07T11:01:04.078Z,9.90
2022-10-07T11:03:47.021Z,8.73
2022-10-07T11:06:20.654Z,8.18
2022-10-07T11:08:52.600Z,9.55
2022-10-07T11:11:39.512Z,8.82
2022-10-07T11:14:18.849Z,9.15
2022-10-07T11:16:54.579Z,9.32
2022-10-07T11:19:31.502Z,8.02
2022-10-07T11:22:02.501Z,8.88
2022-10-07T11:24:35.394Z,8.30
2022-10-07T11:27:11.244Z,8.20
2022-10-07T11:29:48.772Z,9.13
2022-10-07T11:41:35.555Z,7.32
2022-10-07T11:44:10.210Z,8.15
2022-10-07T11:46:43.485Z,7.80
2022-10-07T11:49:19.573Z,7.70
2022-10-07T11:51:57.516Z,8.70
2022-10-07T11:54:33.137Z,7.13
2022-10-07T11:57:41.967Z,7.05
2022-10-07T12:00:30.818Z,7.72
2022-10-07T12:03:10.911Z,8.82
2022-10-07T12:08:49.708Z,7.60
2022-10-07T12:11:55.367Z,8.00
2022-10-07T12:15:01.430Z,8.82
2022-10-07T12:17:36.917Z,7.65
2022-10-07T12:20:45.884Z,8.63
2022-10-07T12:23:52.104Z,7.95
2022-10-07T12:27:05.672Z,7.10
2022-10-07T12:30:06.059Z,7.03
2022-10-07T12:35:54.535Z,8.23
2022-10-07T12:41:40.572Z,7.18
2022-10-07T12:44:35.118Z,7.07
2022-10-07T12:47:26.493Z,6.18
2022-10-07T12:50:12.621Z,7.30
2022-10-07T12:53:01.120Z,6.50
2022-10-07T12:55:50.472Z,6.95
2022-10-07T12:59:01.162Z,7.22
2022-10-07T13:05:02.007Z,7.32
2022-10-07T13:08:15.903Z,9.20
2022-10-07T13:11:07.178Z,6.55
2022-10-07T13:13:42.470Z,7.03
2022-10-07T13:16:18.632Z,6.53
2022-10-07T13:18:56.924Z,6.93
2022-10-07T13:21:33.410Z,6.93
2022-10-07T13:24:15.283Z,7.70
2022-10-07T13:26:47.097Z,7.47
2022-10-07T13:29:24.191Z,7.70
2022-10-07T13:32:10.090Z,7.30
2022-10-07T13:34:41.065Z,7.40
2022-10-07T13:37:40.407Z,8.27
2022-10-07T13:40:23.850Z,9.18
2022-10-07T13:42:58.516Z,8.40
2022-10-07T13:45:30.565Z,8.45
2022-10-07T13:48:05.310Z,8.50
2022-10-07T13:50:38.429Z,9.40
2022-10-07T13:53:23.853Z,9.40
2022-10-07T13:55:55.885Z,9.15
2022-10-07T13:58:26.518Z,11.15
2022-10-07T14:00:59.525Z,9.07
2022-10-07T14:03:44.716Z,8.65
2022-10-07T14:06:41.296Z,8.18
2022-10-07T14:09:22.516Z,8.73
2022-10-07T14:11:56.879Z,8.15
2022-10-07T14:14:32.126Z,9.55
2022-10-07T14:17:02.363Z,9.82
2022-10-07T14:19:35.484Z,11.48
2022-10-07T14:22:08.185Z,10.52
2022-10-07T14:24:39.200Z,10.57
2022-10-07T14:27:25.006Z,11.68
2022-10-07T14:29:54.058Z,9.32
2022-10-07T14:32:41.351Z,9.65
2022-10-07T14:35:25.965Z,11.68
2022-10-07T14:37:54.786Z,9.70
2022-10-07T14:40:27.151Z,9.32
2022-10-07T14:43:07.874Z,11.50
2022-10-07T14:48:13.936Z,13.27
2022-10-07T14:51:03.520Z,12.50
2022-10-07T14:56:31.106Z,10.80
2022-10-07T14:59:01.763Z,11.40
2022-10-07T15:01:35.365Z,10.20
2022-10-07T15:04:04.401Z,11.07
2022-10-07T15:06:35.599Z,11.70
2022-10-07T15:09:04.591Z,11.77
2022-10-07T15:11:50.034Z,11.98
2022-10-07T15:14:19.808Z,12.32
2022-10-07T15:16:50.930Z,11.88
2022-10-07T15:19:24.932Z,11.20
2022-10-07T15:36:07.347Z,11.50
2022-10-07T15:38:44.657Z,12.35
2022-10-07T15:41:32.959Z,13.00
2022-10-07T15:44:07.196Z,11.77
2022-10-07T15:46:37.364Z,12.55
2022-10-07T15:49:08.215Z,12.97
2022-10-07T15:51:39.125Z,12.45
2022-10-07T15:54:10.930Z,14.30
2022-10-07T15:59:32.264Z,12.80
2022-10-07T16:02:15.277Z,13.80
2022-10-07T16:04:47.873Z,13.32
2022-10-07T16:07:19.141Z,14.32
2022-10-07T16:12:32.534Z,13.63
2022-10-07T16:17:36.056Z,13.05
2022-10-07T16:20:11.663Z,12.32
2022-10-07T16:22:47.719Z,15.60
2022-10-07T16:25:21.962Z,13.95
2022-10-07T16:28:08.735Z,11.95
2022-10-07T16:30:42.566Z,12.15
2022-10-07T16:33:12.646Z,15.40
2022-10-07T16:35:41.171Z,14.80
2022-10-07T16:38:09.810Z,12.90
2022-10-07T16:40:58.939Z,14.80
2022-10-07T16:43:31.590Z,13.35
2022-10-07T16:46:21.875Z,13.98
2022-10-07T16:49:01.277Z,13.73
2022-10-07T16:51:34.757Z,15.52
2022-10-07T16:54:05.879Z,14.30
2022-10-07T16:56:51.334Z,14.25
2022-10-07T16:59:24.342Z,14.32
2022-10-07T17:01:57.265Z,16.88
2022-10-07T17:04:27.036Z,13.60
2022-10-07T17:06:59.112Z,15.45
2022-10-07T17:09:35.346Z,16.63
2022-10-07T17:12:20.196Z,19.02
2022-10-07T17:15:12.218Z,15.00
2022-10-07T17:20:28.646Z,15.15
2022-10-07T17:22:56.921Z,15.02
2022-10-07T17:25:32.892Z,15.38
2022-10-07T17:28:04.929Z,16.60
2022-10-07T17:30:58.054Z,15.60
2022-10-07T17:33:36.041Z,15.50
2022-10-07T17:36:11.721Z,17.80
2022-10-07T17:38:42.126Z,19.23
2022-10-07T17:41:17.472Z,22.00
2022-10-07T17:43:48.211Z,18.13
2022-10-07T17:46:20.110Z,14.73
2022-10-07T17:48:59.033Z,13.63
2022-10-07T17:51:38.115Z,12.15
2022-10-07T17:54:08.553Z,12.05
2022-10-07T17:56:36.930Z,10.68
2022-10-07T17:59:05.452Z,12.20
2022-10-07T18:01:51.702Z,16.70
2022-10-07T18:04:27.972Z,14.07
2022-10-07T18:07:06.466Z,12.50
2022-10-07T18:09:36.169Z,12.45
2022-10-07T18:12:37.810Z,10.63
2022-10-07T18:15:31.750Z,11.18
2022-10-07T18:18:01.849Z,12.30
2022-10-07T18:20:31.639Z,13.45
2022-10-07T18:23:00.329Z,11.85
2022-10-07T18:25:30.074Z,10.73
2022-10-07T18:30:59.471Z,11.88
2022-10-07T18:33:28.982Z,13.05
2022-10-07T18:39:05.371Z,9.68
2022-10-07T18:41:35.890Z,9.15
2022-10-07T18:44:09.813Z,11.23
2022-10-07T18:46:38.949Z,11.73
2022-10-07T18:49:15.565Z,11.85
2022-10-07T18:51:47.443Z,11.73
2022-10-07T18:54:16.539Z,10.82
2022-10-07T18:56:59.542Z,10.68
2022-10-07T19:02:30.480Z,9.93
2022-10-07T19:05:01.521Z,9.77
2022-10-07T19:07:47.509Z,8.52
2022-10-07T19:10:19.928Z,8.52
2022-10-07T19:15:54.399Z,10.55
2022-10-07T19:18:37.240Z,9.68
2022-10-07T19:24:20.909Z,9.20
2022-10-07T19:26:57.585Z,7.53
2022-10-07T19:32:23.854Z,8.27
2022-10-07T19:34:52.592Z,9.03
2022-10-07T19:37:22.917Z,8.43
2022-10-07T19:40:08.320Z,8.60
2022-10-07T19:42:47.425Z,8.40
2022-10-07T19:45:26.093Z,9.18
2022-10-07T19:47:58.819Z,10.40
2022-10-07T19:53:24.730Z,8.23
2022-10-07T20:02:00.817Z,9.25
2022-10-07T20:04:45.813Z,10.18
2022-10-07T20:07:28.868Z,9.48
2022-10-07T20:10:19.020Z,7.95
2022-10-07T20:15:53.980Z,7.78
2022-10-07T20:18:23.815Z,8.07
2022-10-07T20:20:57.185Z,8.30
2022-10-07T20:23:30.171Z,8.07
2022-10-07T20:26:01.569Z,7.88
2022-10-07T20:29:04.745Z,8.27
2022-10-07T20:31:37.457Z,7.30
2022-10-07T20:34:16.152Z,7.60
2022-10-07T20:36:49.337Z,6.72
2022-10-07T20:39:37.868Z,7.18
2022-10-07T20:42:30.758Z,6.60
2022-10-07T20:45:04.830Z,7.85
2022-10-07T20:47:43.288Z,10.73
2022-10-07T20:50:25.039Z,10.00
2022-10-07T20:55:24.066Z,13.00
2022-10-07T20:58:03.699Z,8.95
2022-10-07T21:00:43.635Z,7.22
2022-10-07T21:03:22.292Z,7.20
2022-10-07T21:06:13.299Z,7.78
2022-10-07T21:11:40.946Z,7.90
2022-10-07T21:14:13.537Z,7.20
2022-10-07T21:16:44.891Z,7.20
2022-10-07T21:19:13.453Z,6.53
2022-10-07T21:21:43.198Z,8.20
2022-10-07T21:24:13.120Z,7.18
2022-10-07T21:26:45.164Z,7.82
2022-10-07T21:29:17.334Z,7.47
2022-10-07T21:31:48.164Z,10.85
2022-10-07T21:34:17.968Z,6.35
2022-10-07T21:36:53.577Z,6.90
2022-10-07T21:39:23.964Z,6.25
2022-10-07T21:42:15.060Z,6.07
2022-10-07T21:44:44.691Z,6.82
2022-10-07T21:47:15.495Z,6.57
2022-10-07T21:49:53.910Z,5.72
2022-10-07T22:04:23.657Z,7.05
2022-10-07T22:07:09.793Z,6.38
2022-10-07T22:09:41.267Z,6.50
2022-10-07T22:12:11.143Z,6.28
2022-10-07T22:14:43.033Z,5.00
2022-10-07T22:17:13.125Z,6.30
2022-10-07T22:19:43.652Z,6.78
2022-10-07T22:22:23.818Z,7.65
2022-10-07T22:24:57.225Z,7.75
2022-10-07T22:27:26.667Z,10.98
2022-10-07T22:29:57.746Z,12.77
2022-10-07T22:32:27.249Z,13.18
2022-10-07T22:35:17.430Z,12.95
2022-10-07T22:37:47.962Z,13.30
2022-10-07T22:40:17.413Z,15.30
2022-10-07T22:42:46.886Z,14.73
2022-10-07T22:45:16.001Z,16.25
2022-10-07T22:47:46.313Z,17.35
2022-10-07T22:50:19.386Z,12.45
2022-10-07T22:52:51.762Z,11.75
2022-10-07T22:55:21.682Z,12.82
2022-10-07T22:57:55.651Z,14.57
2022-10-07T23:00:25.672Z,11.35
2022-10-07T23:03:00.053Z,11.75
2022-10-07T23:05:36.660Z,9.52
2022-10-07T23:11:19.208Z,7.57
2022-10-07T23:13:51.121Z,5.22
2022-10-07T23:16:24.410Z,5.90
2022-10-07T23:21:41.077Z,5.78
2022-10-07T23:24:10.916Z,5.63
2022-10-07T23:26:39.973Z,5.30
2022-10-07T23:29:13.453Z,5.95
2022-10-07T23:31:58.167Z,4.90
2022-10-07T23:34:40.585Z,6.22
2022-10-07T23:37:24.711Z,6.07
2022-10-07T23:40:07.085Z,4.40
2022-10-07T23:42:37.425Z,5.22
2022-10-07T23:45:10.854Z,4.63
2022-10-07T23:47:53.551Z,4.50
2022-10-07T23:50:23.101Z,5.75
2022-10-07T23:52:52.862Z,5.10
2022-10-07T23:58:07.783Z,5.45
